createdAt,value
2022-09-05T00:00:06.336Z,16.49
2022-09-05T00:03:02.042Z,16.30
2022-09-05T00:06:01.735Z,16.22
2022-09-05T00:08:44.445Z,16.31
2022-09-05T00:11:40.416Z,16.23
2022-09-05T00:14:34.185Z,16.09
2022-09-05T00:18:06.538Z,15.97
2022-09-05T00:24:25.192Z,15.89
2022-09-05T00:24:33.059Z,15.89
2022-09-05T00:26:22.905Z,15.91
2022-09-05T00:28:58.617Z,15.87
2022-09-05T00:31:55.890Z,15.87
2022-09-05T00:34:56.688Z,15.92
2022-09-05T00:37:33.516Z,15.65
2022-09-05T00:40:23.551Z,15.59
2022-09-05T00:42:55.629Z,15.59
2022-09-05T00:45:32.015Z,15.57
2022-09-05T00:48:09.353Z,15.53
2022-09-05T00:50:59.803Z,15.56
2022-09-05T00:53:37.912Z,15.65
2022-09-05T00:56:20.939Z,15.77
2022-09-05T00:59:28.538Z,15.76
2022-09-05T01:02:05.700Z,15.60
2022-09-05T01:04:44.227Z,15.56
2022-09-05T01:07:28.252Z,15.61
2022-09-05T01:10:12.495Z,15.51
2022-09-05T01:12:59.184Z,15.39
2022-09-05T01:15:37.588Z,15.31
2022-09-05T01:18:20.944Z,15.33
2022-09-05T01:21:12.396Z,15.40
2022-09-05T01:23:55.421Z,15.39
2022-09-05T01:26:45.783Z,15.42
2022-09-05T01:29:20.852Z,15.40
2022-09-05T01:32:15.381Z,15.53
2022-09-05T01:34:57.695Z,15.67
2022-09-05T01:37:34.289Z,15.54
2022-09-05T01:40:16.691Z,15.60
2022-09-05T01:43:02.496Z,15.53
2022-09-05T01:45:46.555Z,15.74
2022-09-05T01:48:28.353Z,15.61
2022-09-05T01:51:28.259Z,15.39
2022-09-05T01:54:10.133Z,15.31
2022-09-05T01:57:03.458Z,15.03
2022-09-05T01:59:45.862Z,14.98
2022-09-05T02:02:35.432Z,14.98
2022-09-05T02:05:48.434Z,14.77
2022-09-05T02:08:35.780Z,14.30
2022-09-05T02:11:07.100Z,14.16
2022-09-05T02:13:53.473Z,14.13
2022-09-05T02:16:29.624Z,14.07
2022-09-05T02:19:08.503Z,14.10
2022-09-05T02:21:56.289Z,14.19
2022-09-05T02:24:29.365Z,14.32
2022-09-05T02:27:53.477Z,14.31
2022-09-05T02:30:13.690Z,14.51
2022-09-05T02:32:52.679Z,14.27
2022-09-05T02:35:28.246Z,14.34
2022-09-05T02:38:03.333Z,14.45
2022-09-05T02:45:13.701Z,14.55
2022-09-05T02:45:20.601Z,14.28
2022-09-05T02:46:51.407Z,14.09
2022-09-05T02:51:02.561Z,14.15
2022-09-05T02:57:26.825Z,14.19
2022-09-05T02:57:47.028Z,14.19
2022-09-05T02:58:26.130Z,14.11
2022-09-05T03:01:02.765Z,14.19
2022-09-05T03:03:39.290Z,14.18
2022-09-05T03:06:34.274Z,13.99
2022-09-05T03:09:22.546Z,14.20
2022-09-05T03:12:41.018Z,14.06
2022-09-05T03:15:50.402Z,14.01
2022-09-05T03:18:47.889Z,14.20
2022-09-05T03:21:47.962Z,14.24
2022-09-05T03:24:55.906Z,14.33
2022-09-05T03:28:03.368Z,14.37
2022-09-05T03:30:52.806Z,14.30
2022-09-05T03:33:54.521Z,14.33
2022-09-05T03:36:58.807Z,14.15
2022-09-05T03:40:00.678Z,14.18
2022-09-05T03:42:58.545Z,14.06
2022-09-05T03:45:46.571Z,14.04
2022-09-05T03:48:50.945Z,14.13
2022-09-05T03:57:14.380Z,13.76
2022-09-05T03:57:26.942Z,13.90
2022-09-05T03:58:16.762Z,13.78
2022-09-05T04:01:20.270Z,14.03
2022-09-05T04:08:13.653Z,14.14
2022-09-05T04:08:24.411Z,14.08
2022-09-05T04:09:51.152Z,13.99
2022-09-05T04:12:23.069Z,14.04
2022-09-05T04:14:58.037Z,13.99
2022-09-05T04:17:33.620Z,14.09
2022-09-05T04:20:11.028Z,14.25
2022-09-05T04:23:03.168Z,14.16
2022-09-05T04:25:43.290Z,14.18
2022-09-05T04:28:23.267Z,14.11
2022-09-05T04:30:59.723Z,13.72
2022-09-05T04:33:36.422Z,13.46
2022-09-05T04:36:19.888Z,13.02
2022-09-05T04:39:07.988Z,13.12
2022-09-05T04:41:41.571Z,13.37
2022-09-05T04:44:16.200Z,13.60
2022-09-05T04:46:50.104Z,13.62
2022-09-05T04:49:25.680Z,13.71
2022-09-05T04:52:23.605Z,13.91
2022-09-05T04:55:08.285Z,14.07
2022-09-05T04:57:44.508Z,14.09
2022-09-05T05:05:22.308Z,13.95
2022-09-05T05:06:04.736Z,13.62
2022-09-05T05:06:36.747Z,13.26
2022-09-05T05:09:01.726Z,13.41
2022-09-05T05:17:53.718Z,13.34
2022-09-05T05:18:09.601Z,13.68
2022-09-05T05:18:10.901Z,13.52
2022-09-05T05:20:41.281Z,13.39
2022-09-05T05:23:14.639Z,13.47
2022-09-05T05:25:49.091Z,13.59
2022-09-05T05:28:25.297Z,13.74
2022-09-05T05:31:01.160Z,13.95
2022-09-05T05:33:33.973Z,14.00
2022-09-05T05:36:07.794Z,14.54
2022-09-05T05:38:44.843Z,14.65
2022-09-05T05:41:20.618Z,14.74
2022-09-05T05:43:50.862Z,14.98
2022-09-05T05:46:29.688Z,15.18
2022-09-05T05:49:15.272Z,15.44
2022-09-05T05:52:02.564Z,15.61
2022-09-05T05:54:38.458Z,15.75
2022-09-05T05:57:35.105Z,15.83
2022-09-05T06:00:14.936Z,16.07
2022-09-05T06:03:33.575Z,16.16
2022-09-05T06:06:38.207Z,16.09
2022-09-05T06:14:51.434Z,16.15
2022-09-05T06:15:02.641Z,16.26
2022-09-05T06:16:47.157Z,16.51
2022-09-05T06:20:53.045Z,16.68
2022-09-05T06:23:27.520Z,16.94
2022-09-05T06:26:33.825Z,17.10
2022-09-05T06:29:09.727Z,17.24
2022-09-05T06:32:01.514Z,17.43
2022-09-05T06:34:59.879Z,17.43
2022-09-05T06:37:39.928Z,17.56
2022-09-05T06:40:16.989Z,17.68
2022-09-05T06:43:04.511Z,17.83
2022-09-05T06:45:58.655Z,18.01
2022-09-05T06:48:44.586Z,17.94
2022-09-05T06:51:49.115Z,17.93
2022-09-05T06:55:18.557Z,18.05
2022-09-05T06:58:10.031Z,18.14
2022-09-05T07:00:47.520Z,18.28
2022-09-05T07:03:27.529Z,18.31
2022-09-05T07:06:01.956Z,18.31
2022-09-05T07:08:48.007Z,18.27
2022-09-05T07:11:21.003Z,18.44
2022-09-05T07:14:01.267Z,18.48
2022-09-05T07:16:47.389Z,18.55
2022-09-05T07:19:27.285Z,18.62
2022-09-05T07:22:25.793Z,18.70
2022-09-05T07:25:09.049Z,18.78
2022-09-05T07:27:42.000Z,18.60
2022-09-05T07:30:29.779Z,18.66
2022-09-05T07:33:06.815Z,18.84
2022-09-05T07:35:41.737Z,18.88
2022-09-05T07:38:16.309Z,18.84
2022-09-05T07:40:52.335Z,18.90
2022-09-05T07:43:25.376Z,18.77
2022-09-05T07:46:06.274Z,19.02
2022-09-05T07:48:38.418Z,18.96
2022-09-05T07:56:46.084Z,19.07
2022-09-05T07:57:10.066Z,19.19
2022-09-05T07:59:54.654Z,19.30
2022-09-05T08:02:22.679Z,19.41
2022-09-05T08:05:05.880Z,19.46
2022-09-05T08:07:46.632Z,19.52
2022-09-05T08:10:31.162Z,19.30
2022-09-05T08:13:23.724Z,19.39
2022-09-05T08:16:12.997Z,19.53
2022-09-05T08:18:47.701Z,19.68
2022-09-05T08:21:27.358Z,19.69
2022-09-05T08:24:13.561Z,19.98
2022-09-05T08:26:47.260Z,20.24
2022-09-05T08:29:28.288Z,20.38
2022-09-05T08:32:02.654Z,19.96
2022-09-05T08:34:45.619Z,20.26
2022-09-05T08:37:21.640Z,20.58
2022-09-05T08:40:02.442Z,20.71
2022-09-05T08:43:39.352Z,20.83
2022-09-05T08:46:41.808Z,20.89
2022-09-05T08:48:47.410Z,21.10
2022-09-05T08:51:28.436Z,21.16
2022-09-05T08:54:17.834Z,21.54
2022-09-05T08:56:55.291Z,21.81
2022-09-05T09:00:18.449Z,21.75
2022-09-05T09:03:07.036Z,21.87
2022-09-05T09:06:13.305Z,21.90
2022-09-05T09:08:57.119Z,22.07
2022-09-05T09:11:34.379Z,22.17
2022-09-05T09:14:35.818Z,22.38
2022-09-05T09:17:41.202Z,22.37
2022-09-05T09:20:16.846Z,22.22
2022-09-05T09:22:58.435Z,22.31
2022-09-05T09:25:33.978Z,22.53
2022-09-05T09:28:47.803Z,22.54
2022-09-05T09:31:16.867Z,22.51
2022-09-05T09:33:50.943Z,22.61
2022-09-05T09:36:41.895Z,22.88
2022-09-05T09:39:38.295Z,23.28
2022-09-05T09:42:33.598Z,23.41
2022-09-05T09:45:28.542Z,23.29
2022-09-05T09:48:41.933Z,23.45
2022-09-05T09:51:26.985Z,23.24
2022-09-05T09:54:19.574Z,23.35
2022-09-05T09:57:20.832Z,23.33
2022-09-05T10:00:07.593Z,23.43
2022-09-05T10:04:55.577Z,23.69
2022-09-05T10:10:46.529Z,24.11
2022-09-05T10:10:54.672Z,23.97
2022-09-05T10:13:08.089Z,24.04
2022-09-05T10:15:55.676Z,23.70
2022-09-05T10:18:42.393Z,23.53
2022-09-05T10:21:36.400Z,23.84
2022-09-05T10:24:43.464Z,23.91
2022-09-05T10:27:39.278Z,24.17
2022-09-05T10:30:16.342Z,23.84
2022-09-05T10:35:18.064Z,23.89
2022-09-05T10:36:25.584Z,24.06
2022-09-05T10:39:04.631Z,23.95
2022-09-05T10:41:44.269Z,24.35
2022-09-05T10:44:14.380Z,24.41
2022-09-05T10:46:57.067Z,24.62
2022-09-05T10:49:30.107Z,24.71
2022-09-05T10:52:18.796Z,24.91
2022-09-05T10:55:14.962Z,25.02
2022-09-05T10:58:01.073Z,25.05
2022-09-05T11:02:22.429Z,24.96
2022-09-05T11:03:46.594Z,25.33
2022-09-05T11:06:20.907Z,25.48
2022-09-05T11:09:06.132Z,25.61
2022-09-05T11:11:46.228Z,25.67
2022-09-05T11:14:36.726Z,25.60
2022-09-05T11:17:17.336Z,25.67
2022-09-05T11:19:51.384Z,25.66
2022-09-05T11:22:23.724Z,25.64
2022-09-05T11:24:57.004Z,25.89
2022-09-05T11:27:33.189Z,26.05
2022-09-05T11:30:08.552Z,25.55
2022-09-05T11:39:51.961Z,25.51
2022-09-05T11:39:52.867Z,25.44
2022-09-05T11:40:00.281Z,25.94
2022-09-05T11:42:36.685Z,26.48
2022-09-05T11:45:56.595Z,26.46
2022-09-05T11:48:53.596Z,25.83
2022-09-05T11:51:59.815Z,25.88
2022-09-05T11:55:21.229Z,25.71
2022-09-05T11:58:19.929Z,25.96
2022-09-05T12:01:42.193Z,26.19
2022-09-05T12:04:17.761Z,26.42
2022-09-05T12:07:26.994Z,26.68
2022-09-05T12:10:47.876Z,26.02
2022-09-05T12:13:21.712Z,26.66
2022-09-05T12:16:08.433Z,26.77
2022-09-05T12:18:48.048Z,27.30
2022-09-05T12:21:27.621Z,27.52
2022-09-05T12:25:17.316Z,27.20
2022-09-05T12:27:38.662Z,27.16
2022-09-05T12:29:59.807Z,27.31
2022-09-05T12:35:48.727Z,27.22
2022-09-05T12:36:08.392Z,27.54
2022-09-05T12:40:57.365Z,27.79
2022-09-05T12:41:46.169Z,27.58
2022-09-05T12:44:47.248Z,26.52
2022-09-05T12:47:22.888Z,26.49
2022-09-05T12:50:03.572Z,26.11
2022-09-05T12:52:46.497Z,25.95
2022-09-05T12:55:26.027Z,26.48
2022-09-05T13:02:58.702Z,26.87
2022-09-05T13:03:03.809Z,27.11
2022-09-05T13:04:15.923Z,26.48
2022-09-05T13:06:40.942Z,25.77
2022-09-05T13:09:21.229Z,26.05
2022-09-05T13:14:46.714Z,26.52
2022-09-05T13:15:18.671Z,26.64
2022-09-05T13:17:54.625Z,27.33
2022-09-05T13:20:34.967Z,27.38
2022-09-05T13:23:11.380Z,27.61
2022-09-05T13:25:43.243Z,27.21
2022-09-05T13:28:16.288Z,27.40
2022-09-05T13:37:53.621Z,27.33
2022-09-05T13:38:11.133Z,27.51
2022-09-05T13:38:13.582Z,27.57
2022-09-05T13:39:37.444Z,27.78
2022-09-05T13:42:07.245Z,28.16
2022-09-05T13:44:46.447Z,28.21
2022-09-05T13:47:29.784Z,27.72
2022-09-05T13:50:22.318Z,27.53
2022-09-05T13:52:58.090Z,27.77
2022-09-05T13:55:44.900Z,27.68
2022-09-05T13:58:21.506Z,28.05
2022-09-05T14:01:17.579Z,28.57
2022-09-05T14:07:46.001Z,29.24
2022-09-05T14:10:48.411Z,28.50
2022-09-05T14:13:20.827Z,28.50
2022-09-05T14:15:55.323Z,28.57
2022-09-05T14:18:26.019Z,28.65
2022-09-05T14:21:17.026Z,28.43
2022-09-05T14:23:55.974Z,28.49
2022-09-05T14:26:30.129Z,28.58
2022-09-05T14:29:05.077Z,28.08
2022-09-05T14:37:43.108Z,27.84
2022-09-05T14:37:55.079Z,28.30
2022-09-05T14:38:09.336Z,28.01
2022-09-05T14:41:35.353Z,28.05
2022-09-05T14:44:32.051Z,28.67
2022-09-05T14:47:32.490Z,29.01
2022-09-05T14:50:35.066Z,28.72
2022-09-05T14:56:38.324Z,27.83
2022-09-05T15:02:44.576Z,27.88
2022-09-05T15:02:48.152Z,28.19
2022-09-05T15:04:44.583Z,28.59
2022-09-05T15:07:17.332Z,28.72
2022-09-05T15:12:14.647Z,28.43
2022-09-05T15:12:45.994Z,28.65
2022-09-05T15:15:25.692Z,28.46
2022-09-05T15:17:57.909Z,28.29
2022-09-05T15:20:32.221Z,27.95
2022-09-05T15:23:03.665Z,27.88
2022-09-05T15:25:47.407Z,27.88
2022-09-05T15:28:21.596Z,28.47
2022-09-05T15:30:57.987Z,28.52
2022-09-05T15:33:30.122Z,28.72
2022-09-05T15:35:59.196Z,28.84
2022-09-05T15:38:31.257Z,28.78
2022-09-05T15:41:08.064Z,28.96
2022-09-05T15:43:40.123Z,29.22
2022-09-05T15:46:08.617Z,29.08
2022-09-05T15:48:40.857Z,29.28
2022-09-05T15:51:18.864Z,29.00
2022-09-05T15:53:52.522Z,29.01
2022-09-05T15:56:24.482Z,28.85
2022-09-05T15:58:57.502Z,28.78
2022-09-05T16:01:46.411Z,28.82
2022-09-05T16:09:16.606Z,28.51
2022-09-05T16:10:37.467Z,28.19
2022-09-05T16:10:41.439Z,28.07
2022-09-05T16:12:51.830Z,27.75
2022-09-05T16:17:52.505Z,28.06
2022-09-05T16:23:17.780Z,28.16
2022-09-05T16:23:26.557Z,28.27
2022-09-05T16:24:05.201Z,28.30
2022-09-05T16:26:37.011Z,28.18
2022-09-05T16:29:10.931Z,27.94
2022-09-05T16:31:46.286Z,27.88
2022-09-05T16:34:26.515Z,27.83
2022-09-05T16:37:09.035Z,27.64
2022-09-05T16:39:40.359Z,27.56
2022-09-05T16:42:17.408Z,27.50
2022-09-05T16:44:52.390Z,27.34
2022-09-05T16:47:25.810Z,27.31
2022-09-05T16:50:02.808Z,27.23
2022-09-05T16:52:40.080Z,27.16
2022-09-05T16:55:28.950Z,26.83
2022-09-05T16:58:03.450Z,26.48
2022-09-05T17:01:05.732Z,26.12
2022-09-05T17:03:43.922Z,25.76
2022-09-05T17:06:25.567Z,25.34
2022-09-05T17:09:12.134Z,25.12
2022-09-05T17:11:59.831Z,24.96
2022-09-05T17:14:34.526Z,24.75
2022-09-05T17:17:20.248Z,24.57
2022-09-05T17:20:05.906Z,24.43
2022-09-05T17:26:35.216Z,24.26
2022-09-05T17:29:18.037Z,24.04
2022-09-05T17:29:24.826Z,23.87
2022-09-05T17:31:57.591Z,23.68
2022-09-05T17:35:18.001Z,23.55
2022-09-05T17:38:29.458Z,23.31
2022-09-05T17:41:30.876Z,23.15
2022-09-05T17:44:07.359Z,22.90
2022-09-05T17:46:44.217Z,22.69
2022-09-05T17:49:19.405Z,22.53
2022-09-05T17:52:22.971Z,22.32
2022-09-05T17:54:53.864Z,22.16
2022-09-05T17:57:45.162Z,21.99
2022-09-05T18:01:05.431Z,21.81
2022-09-05T18:04:15.957Z,21.67
2022-09-05T18:06:59.220Z,21.62
2022-09-05T18:10:03.496Z,21.60
2022-09-05T18:16:11.702Z,21.51
2022-09-05T18:19:32.122Z,21.43
2022-09-05T18:21:48.194Z,21.29
2022-09-05T18:27:43.950Z,21.01
2022-09-05T18:30:33.289Z,20.96
2022-09-05T18:33:55.394Z,20.85
2022-09-05T18:36:35.845Z,20.82
2022-09-05T18:39:49.376Z,20.66
2022-09-05T18:42:33.583Z,20.66
2022-09-05T18:45:15.441Z,20.67
2022-09-05T18:47:52.686Z,20.68
2022-09-05T18:50:32.408Z,20.64
2022-09-05T18:53:09.636Z,20.59
2022-09-05T18:56:12.582Z,20.68
2022-09-05T18:58:53.994Z,20.70
2022-09-05T19:01:33.351Z,20.76
2022-09-05T19:04:06.840Z,20.71
2022-09-05T19:06:45.162Z,20.68
2022-09-05T19:09:27.229Z,20.62
2022-09-05T19:12:33.148Z,20.61
2022-09-05T19:14:54.431Z,20.68
2022-09-05T19:17:32.482Z,20.66
2022-09-05T19:20:31.551Z,20.68
2022-09-05T19:23:11.300Z,20.68
2022-09-05T19:25:42.897Z,20.55
2022-09-05T19:32:10.690Z,20.46
2022-09-05T19:36:54.501Z,20.38
2022-09-05T19:36:54.643Z,20.32
2022-09-05T19:37:26.269Z,20.17
2022-09-05T19:43:24.115Z,20.03
2022-09-05T19:47:35.919Z,19.98
2022-09-05T19:47:40.606Z,19.96
2022-09-05T19:48:26.040Z,19.82
2022-09-05T19:50:56.392Z,19.66
2022-09-05T19:53:26.279Z,19.65
2022-09-05T19:55:55.900Z,19.64
2022-09-05T19:58:25.467Z,19.66
2022-09-05T20:01:06.026Z,19.67
2022-09-05T20:03:39.415Z,19.63
2022-09-05T20:06:28.718Z,19.63
2022-09-05T20:09:15.361Z,19.62
2022-09-05T20:11:51.251Z,19.52
2022-09-05T20:14:22.360Z,19.53
2022-09-05T20:16:51.401Z,19.55
2022-09-05T20:19:32.440Z,19.61
2022-09-05T20:22:10.202Z,19.67
2022-09-05T20:24:53.844Z,19.71
2022-09-05T20:27:27.046Z,19.64
2022-09-05T20:29:58.956Z,19.49
2022-09-05T20:32:38.867Z,19.27
2022-09-05T20:38:42.119Z,19.08
2022-09-05T20:43:19.664Z,18.90
2022-09-05T20:43:27.684Z,18.75
2022-09-05T20:43:57.760Z,18.77
2022-09-05T20:48:55.805Z,18.80
2022-09-05T20:54:06.059Z,18.87
2022-09-05T20:54:18.043Z,18.96
2022-09-05T20:55:39.196Z,18.98
2022-09-05T20:57:51.488Z,18.99
2022-09-05T21:00:22.513Z,19.00
2022-09-05T21:02:54.729Z,19.04
2022-09-05T21:05:30.135Z,18.94
2022-09-05T21:08:26.057Z,18.84
2022-09-05T21:10:56.520Z,18.61
2022-09-05T21:13:29.733Z,18.31
2022-09-05T21:15:58.396Z,17.97
2022-09-05T21:18:33.880Z,17.70
2022-09-05T21:21:28.960Z,17.60
2022-09-05T21:24:16.502Z,17.41
2022-09-05T21:26:48.140Z,17.55
2022-09-05T21:29:27.374Z,17.56
2022-09-05T21:32:03.862Z,17.69
2022-09-05T21:34:44.698Z,17.61
2022-09-05T21:37:14.289Z,17.65
2022-09-05T21:39:46.757Z,17.66
2022-09-05T21:43:46.562Z,17.86
2022-09-05T21:47:43.997Z,17.96
2022-09-05T21:48:06.807Z,18.08
2022-09-05T21:50:40.878Z,18.18
2022-09-05T21:55:14.828Z,18.22
2022-09-05T21:59:24.589Z,17.54
2022-09-05T21:59:30.400Z,18.02
2022-09-05T22:01:55.339Z,17.53
2022-09-05T22:04:23.319Z,17.57
2022-09-05T22:06:53.301Z,17.56
2022-09-05T22:09:22.841Z,17.75
2022-09-05T22:11:51.205Z,18.02
2022-09-05T22:14:19.972Z,18.21
2022-09-05T22:16:50.346Z,18.26
2022-09-05T22:19:26.194Z,18.20
2022-09-05T22:22:00.958Z,17.97
2022-09-05T22:24:32.830Z,17.90
2022-09-05T22:27:11.917Z,17.87
2022-09-05T22:29:41.287Z,17.83
2022-09-05T22:32:09.427Z,17.66
2022-09-05T22:34:38.675Z,17.56
2022-09-05T22:37:06.782Z,17.55
2022-09-05T22:39:36.897Z,17.63
2022-09-05T22:42:10.395Z,17.69
2022-09-05T22:44:40.053Z,17.83
2022-09-05T22:47:08.578Z,17.80
2022-09-05T22:49:37.304Z,17.83
2022-09-05T22:52:08.558Z,17.82
2022-09-05T22:54:37.109Z,17.87
2022-09-05T22:57:05.541Z,17.65
2022-09-05T22:59:33.461Z,17.55
2022-09-05T23:02:01.338Z,17.57
2022-09-05T23:04:29.282Z,17.67
2022-09-05T23:06:57.329Z,17.75
2022-09-05T23:09:27.973Z,17.80
2022-09-05T23:11:55.897Z,17.84
2022-09-05T23:14:23.712Z,17.80
2022-09-05T23:16:51.901Z,17.87
2022-09-05T23:19:19.817Z,17.87
2022-09-05T23:21:47.647Z,17.91
2022-09-05T23:24:15.449Z,17.92
2022-09-05T23:26:44.662Z,17.80
2022-09-05T23:29:12.480Z,17.76
2022-09-05T23:31:40.344Z,17.79
2022-09-05T23:34:08.155Z,17.79
2022-09-05T23:36:36.140Z,17.75
2022-09-05T23:39:04.113Z,17.74
2022-09-05T23:41:31.946Z,17.76
2022-09-05T23:44:10.612Z,17.91
2022-09-05T23:46:40.464Z,18.03
2022-09-05T23:49:10.817Z,17.91
2022-09-05T23:51:38.686Z,17.90
2022-09-05T23:54:06.618Z,17.88
2022-09-05T23:56:34.468Z,17.89
2022-09-05T23:59:02.873Z,17.82
